PWSweather.com
Personal Weather Stations
Station Observations
KMIEASTT1
Tawas Bay, East Tawas, MI 48730

Tawas BayEast Tawas, MI 48730

Lat: 44.28, Lon: -83.48

Elevation: 600

Station Type: Davis VantagePro

http://www.tawasbayweather.com

High Low Average
Temperature 72.7°F22.6°C 68.5°F20.3°C 70.6°F21.4°C
Dew Point 71.5°F21.9°C 65.0°F18.3°C 68.3°F20.2°C
Winds 17.0 mph 27.4 kmh Calm Calm 7.0 mph SSE11.3 kmh SSE
Wind Gusts 19.0 mph30.6 kmh -- 10.0 mph16.1 kmh
Humidity 97% 83% 93%
Pressure 29.96 in1014.6 mb 29.60 in1002.4 mb -
Precipitation 0.00 in0.0 mm - -
Hour Temp Dew Point Humidity Winds Wind Gusts Pressure Precip Precip Rate Daily Precip Total
12:00 AM 69.2°F20.7°C 65.8°F18.8°C 89% 5.0 mph E8.0 kmh E 8.0 mph12.9 kmh 29.98 in1015.2 mb 0.00 in0.0 mm 0.00 in0.0 mm 0.00 in0.0 mm
12:15 AM 69.2°F20.7°C 65.5°F18.6°C 88% 1.0 mph E1.6 kmh E 9.0 mph14.5 kmh 29.98 in1015.2 mb 0.00 in0.0 mm 0.00 in0.0 mm 0.00 in0.0 mm
12:30 AM 68.9°F20.5°C 65.5°F18.6°C 89% Calm Calm 6.0 mph9.7 kmh 29.97 in1014.9 mb 0.00 in0.0 mm 0.00 in0.0 mm 0.00 in0.0 mm
12:45 AM 68.7°F20.4°C 65.7°F18.7°C 90% 6.0 mph E9.7 kmh E 7.0 mph11.3 kmh 29.97 in1014.9 mb 0.00 in0.0 mm 0.00 in0.0 mm 0.00 in0.0 mm
01:00 AM 69.0°F20.6°C 66.6°F19.2°C 92% 5.0 mph E8.0 kmh E 10.0 mph16.1 kmh 29.96 in1014.6 mb 0.00 in0.0 mm 0.00 in0.0 mm 0.00 in0.0 mm
01:15 AM 68.8°F20.4°C 66.1°F18.9°C 91% 4.0 mph ESE6.4 kmh ESE 7.0 mph11.3 kmh 29.96 in1014.6 mb 0.00 in0.0 mm 0.00 in0.0 mm 0.00 in0.0 mm
01:30 AM 68.9°F20.5°C 66.5°F19.2°C 92% 5.0 mph E8.0 kmh E 8.0 mph12.9 kmh 29.96 in1014.6 mb 0.00 in0.0 mm 0.00 in0.0 mm 0.00 in0.0 mm
01:45 AM 69.7°F20.9°C 67.3°F19.6°C 92% 8.0 mph ESE12.9 kmh ESE 13.0 mph20.9 kmh 29.96 in1014.6 mb 0.00 in0.0 mm 0.00 in0.0 mm 0.00 in0.0 mm
02:00 AM 69.9°F21.1°C 66.8°F19.3°C 90% 10.0 mph ESE16.1 kmh ESE 13.0 mph20.9 kmh 29.95 in1014.2 mb 0.00 in0.0 mm 0.00 in0.0 mm 0.00 in0.0 mm
02:15 AM 70.2°F21.2°C 66.5°F19.2°C 88% 11.0 mph ESE17.7 kmh ESE 12.0 mph19.3 kmh 29.95 in1014.2 mb 0.00 in0.0 mm 0.00 in0.0 mm 0.00 in0.0 mm
02:30 AM 70.2°F21.2°C 66.5°F19.2°C 88% 10.0 mph ESE16.1 kmh ESE 11.0 mph17.7 kmh 29.95 in1014.2 mb 0.00 in0.0 mm 0.00 in0.0 mm 0.00 in0.0 mm
02:45 AM 70.0°F21.1°C 66.6°F19.2°C 89% 8.0 mph ESE12.9 kmh ESE 10.0 mph16.1 kmh 29.94 in1013.9 mb 0.00 in0.0 mm 0.00 in0.0 mm 0.00 in0.0 mm
03:00 AM 69.8°F21.0°C 66.4°F19.1°C 89% 8.0 mph ESE12.9 kmh ESE 11.0 mph17.7 kmh 29.93 in1013.5 mb 0.00 in0.0 mm 0.00 in0.0 mm 0.00 in0.0 mm
03:15 AM 69.9°F21.1°C 66.5°F19.2°C 89% 8.0 mph ESE12.9 kmh ESE 11.0 mph17.7 kmh 29.93 in1013.5 mb 0.00 in0.0 mm 0.00 in0.0 mm 0.00 in0.0 mm
03:30 AM 70.0°F21.1°C 66.6°F19.2°C 89% 8.0 mph ESE12.9 kmh ESE 10.0 mph16.1 kmh 29.92 in1013.2 mb 0.00 in0.0 mm 0.00 in0.0 mm 0.00 in0.0 mm
03:45 AM 70.1°F21.2°C 67.0°F19.4°C 90% 8.0 mph ESE12.9 kmh ESE 10.0 mph16.1 kmh 29.91 in1012.9 mb 0.00 in0.0 mm 0.00 in0.0 mm 0.00 in0.0 mm
04:00 AM 69.9°F21.1°C 66.8°F19.3°C 90% 9.0 mph SE14.5 kmh SE 11.0 mph17.7 kmh 29.91 in1012.9 mb 0.00 in0.0 mm 0.00 in0.0 mm 0.00 in0.0 mm
04:15 AM 69.9°F21.1°C 66.8°F19.3°C 90% 7.0 mph ESE11.3 kmh ESE 9.0 mph14.5 kmh 29.91 in1012.9 mb 0.00 in0.0 mm 0.00 in0.0 mm 0.00 in0.0 mm
04:30 AM 69.9°F21.1°C 66.5°F19.2°C 89% 4.0 mph ESE6.4 kmh ESE 8.0 mph12.9 kmh 29.90 in1012.5 mb 0.00 in0.0 mm 0.00 in0.0 mm 0.00 in0.0 mm
04:45 AM 69.8°F21.0°C 66.1°F18.9°C 88% 5.0 mph ESE8.0 kmh ESE 7.0 mph11.3 kmh 29.90 in1012.5 mb 0.00 in0.0 mm 0.00 in0.0 mm 0.00 in0.0 mm
05:00 AM 69.9°F21.1°C 66.2°F19.0°C 88% 5.0 mph SE8.0 kmh SE 7.0 mph11.3 kmh 29.89 in1012.2 mb 0.00 in0.0 mm 0.00 in0.0 mm 0.00 in0.0 mm
05:15 AM 70.1°F21.2°C 66.4°F19.1°C 88% 7.0 mph ESE11.3 kmh ESE 7.0 mph11.3 kmh 29.89 in1012.2 mb 0.00 in0.0 mm 0.00 in0.0 mm 0.00 in0.0 mm
05:30 AM 70.1°F21.2°C 66.4°F19.1°C 88% 5.0 mph E8.0 kmh E 7.0 mph11.3 kmh 29.88 in1011.9 mb 0.00 in0.0 mm 0.00 in0.0 mm 0.00 in0.0 mm
05:45 AM 69.4°F20.8°C 65.4°F18.6°C 87% Calm Calm 2.0 mph3.2 kmh 29.88 in1011.9 mb 0.00 in0.0 mm 0.00 in0.0 mm 0.00 in0.0 mm
06:00 AM 69.0°F20.6°C 65.0°F18.3°C 87% 1.0 mph E1.6 kmh E 8.0 mph12.9 kmh 29.87 in1011.5 mb 0.00 in0.0 mm 0.00 in0.0 mm 0.00 in0.0 mm
06:15 AM 70.4°F21.3°C 65.3°F18.5°C 84% 8.0 mph ESE12.9 kmh ESE 11.0 mph17.7 kmh 29.87 in1011.5 mb 0.00 in0.0 mm 0.00 in0.0 mm 0.00 in0.0 mm
06:30 AM 70.6°F21.4°C 65.2°F18.4°C 83% 10.0 mph ESE16.1 kmh ESE 11.0 mph17.7 kmh 29.86 in1011.2 mb 0.00 in0.0 mm 0.00 in0.0 mm 0.00 in0.0 mm
06:45 AM 70.7°F21.5°C 65.3°F18.5°C 83% 9.0 mph ESE14.5 kmh ESE 14.0 mph22.5 kmh 29.86 in1011.2 mb 0.00 in0.0 mm 0.00 in0.0 mm 0.00 in0.0 mm
07:00 AM 70.8°F21.6°C 66.1°F18.9°C 85% 11.0 mph ESE17.7 kmh ESE 13.0 mph20.9 kmh 29.85 in1010.8 mb 0.00 in0.0 mm 0.00 in0.0 mm 0.00 in0.0 mm
07:15 AM 70.4°F21.3°C 65.7°F18.7°C 85% 8.0 mph ESE12.9 kmh ESE 12.0 mph19.3 kmh 29.85 in1010.8 mb 0.00 in0.0 mm 0.00 in0.0 mm 0.00 in0.0 mm
07:30 AM 70.2°F21.2°C 65.8°F18.8°C 86% 7.0 mph ESE11.3 kmh ESE 8.0 mph12.9 kmh 29.84 in1010.5 mb 0.00 in0.0 mm 0.00 in0.0 mm 0.00 in0.0 mm
07:45 AM 70.0°F21.1°C 65.3°F18.5°C 85% 5.0 mph SW8.0 kmh SW 5.0 mph8.0 kmh 29.85 in1010.8 mb 0.01 in0.3 mm 0.04 in1.0 mm 0.01 in0.3 mm
08:00 AM 69.7°F20.9°C 65.7°F18.7°C 87% 1.0 mph SSW1.6 kmh SSW 6.0 mph9.7 kmh 29.86 in1011.2 mb 0.03 in0.8 mm 0.03 in0.8 mm 0.03 in0.8 mm
08:15 AM 69.5°F20.8°C 65.8°F18.8°C 88% 8.0 mph SE12.9 kmh SE 9.0 mph14.5 kmh 29.85 in1010.8 mb 0.05 in1.3 mm 0.08 in2.0 mm 0.05 in1.3 mm
08:30 AM 70.1°F21.2°C 65.7°F18.7°C 86% 13.0 mph SSE20.9 kmh SSE 14.0 mph22.5 kmh 29.85 in1010.8 mb 0.05 in1.3 mm 0.00 in0.0 mm 0.05 in1.3 mm
08:45 AM 70.3°F21.3°C 65.9°F18.8°C 86% 12.0 mph SSE19.3 kmh SSE 13.0 mph20.9 kmh 29.85 in1010.8 mb 0.05 in1.3 mm 0.00 in0.0 mm 0.05 in1.3 mm
09:00 AM 70.2°F21.2°C 65.8°F18.8°C 86% 11.0 mph SE17.7 kmh SE 14.0 mph22.5 kmh 29.84 in1010.5 mb 0.02 in0.5 mm 0.00 in0.0 mm 0.05 in1.3 mm
09:15 AM 70.2°F21.2°C 65.8°F18.8°C 86% 13.0 mph SE20.9 kmh SE 18.0 mph29.0 kmh 29.83 in1010.2 mb 0.02 in0.5 mm 0.00 in0.0 mm 0.05 in1.3 mm
09:30 AM 69.8°F21.0°C 65.8°F18.8°C 87% 11.0 mph SE17.7 kmh SE 18.0 mph29.0 kmh 29.83 in1010.2 mb 0.00 in0.0 mm 0.00 in0.0 mm 0.05 in1.3 mm
09:45 AM 69.7°F20.9°C 66.3°F19.1°C 89% 17.0 mph SSE27.4 kmh SSE 19.0 mph30.6 kmh 29.82 in1009.8 mb 0.00 in0.0 mm 0.00 in0.0 mm 0.05 in1.3 mm
10:00 AM 69.4°F20.8°C 66.7°F19.3°C 91% 15.0 mph SE24.1 kmh SE 19.0 mph30.6 kmh 29.82 in1009.8 mb 0.00 in0.0 mm 0.00 in0.0 mm 0.05 in1.3 mm
10:15 AM 69.4°F20.8°C 66.7°F19.3°C 91% 14.0 mph SE22.5 kmh SE 18.0 mph29.0 kmh 29.82 in1009.8 mb 0.00 in0.0 mm 0.00 in0.0 mm 0.05 in1.3 mm
10:30 AM 68.7°F20.4°C 66.6°F19.2°C 93% 12.0 mph SE19.3 kmh SE 17.0 mph27.4 kmh 29.81 in1009.5 mb 0.03 in0.8 mm 0.12 in3.0 mm 0.08 in2.0 mm
10:45 AM 68.8°F20.4°C 67.0°F19.4°C 94% 15.0 mph SE24.1 kmh SE 18.0 mph29.0 kmh 29.81 in1009.5 mb 0.03 in0.8 mm 0.00 in0.0 mm 0.08 in2.0 mm
11:00 AM 68.8°F20.4°C 67.3°F19.6°C 95% 15.0 mph SE24.1 kmh SE 16.0 mph25.7 kmh 29.80 in1009.1 mb 0.03 in0.8 mm 0.00 in0.0 mm 0.08 in2.0 mm
11:15 AM 68.5°F20.3°C 67.3°F19.6°C 96% 12.0 mph SE19.3 kmh SE 15.0 mph24.1 kmh 29.80 in1009.1 mb 0.05 in1.3 mm 0.08 in2.0 mm 0.10 in2.5 mm
11:30 AM 69.0°F20.6°C 67.8°F19.9°C 96% 9.0 mph SE14.5 kmh SE 13.0 mph20.9 kmh 29.80 in1009.1 mb 0.03 in0.8 mm 0.00 in0.0 mm 0.10 in2.5 mm
11:45 AM 69.2°F20.7°C 68.0°F20.0°C 96% 9.0 mph SE14.5 kmh SE 11.0 mph17.7 kmh 29.79 in1008.8 mb 0.03 in0.8 mm 0.00 in0.0 mm 0.10 in2.5 mm
12:00 PM 69.3°F20.7°C 67.8°F19.9°C 95% 7.0 mph SE11.3 kmh SE 9.0 mph14.5 kmh 29.79 in1008.8 mb 0.03 in0.8 mm 0.00 in0.0 mm 0.10 in2.5 mm
12:15 PM 69.3°F20.7°C 67.8°F19.9°C 95% 10.0 mph SE16.1 kmh SE 12.0 mph19.3 kmh 29.78 in1008.5 mb 0.03 in0.8 mm 0.00 in0.0 mm 0.10 in2.5 mm
12:30 PM 69.5°F20.8°C 68.0°F20.0°C 95% 6.0 mph SE9.7 kmh SE 9.0 mph14.5 kmh 29.78 in1008.5 mb 0.00 in0.0 mm 0.00 in0.0 mm 0.10 in2.5 mm
12:45 PM 69.7°F20.9°C 68.2°F20.1°C 95% 8.0 mph SE12.9 kmh SE 11.0 mph17.7 kmh 29.78 in1008.5 mb 0.00 in0.0 mm 0.00 in0.0 mm 0.10 in2.5 mm
01:00 PM 69.9°F21.1°C 68.4°F20.2°C 95% 8.0 mph SSE12.9 kmh SSE 10.0 mph16.1 kmh 29.78 in1008.5 mb 0.00 in0.0 mm 0.00 in0.0 mm 0.10 in2.5 mm
01:15 PM 69.8°F21.0°C 68.3°F20.2°C 95% 7.0 mph SSE11.3 kmh SSE 9.0 mph14.5 kmh 29.77 in1008.1 mb 0.00 in0.0 mm 0.00 in0.0 mm 0.10 in2.5 mm
01:30 PM 69.7°F20.9°C 68.5°F20.3°C 96% 9.0 mph SSE14.5 kmh SSE 10.0 mph16.1 kmh 29.76 in1007.8 mb 0.00 in0.0 mm 0.00 in0.0 mm 0.10 in2.5 mm
01:45 PM 69.8°F21.0°C 68.6°F20.3°C 96% 5.0 mph SSE8.0 kmh SSE 8.0 mph12.9 kmh 29.75 in1007.5 mb 0.00 in0.0 mm 0.00 in0.0 mm 0.10 in2.5 mm
02:00 PM 70.1°F21.2°C 68.9°F20.5°C 96% 8.0 mph SE12.9 kmh SE 10.0 mph16.1 kmh 29.74 in1007.1 mb 0.01 in0.3 mm 0.01 in0.3 mm 0.11 in2.8 mm
02:15 PM 70.2°F21.2°C 69.3°F20.7°C 97% 10.0 mph SE16.1 kmh SE 12.0 mph19.3 kmh 29.73 in1006.8 mb 0.01 in0.3 mm 0.00 in0.0 mm 0.11 in2.8 mm
02:30 PM 70.2°F21.2°C 69.3°F20.7°C 97% 10.0 mph SE16.1 kmh SE 13.0 mph20.9 kmh 29.72 in1006.4 mb 0.01 in0.3 mm 0.00 in0.0 mm 0.11 in2.8 mm
02:45 PM 70.3°F21.3°C 69.4°F20.8°C 97% 10.0 mph SE16.1 kmh SE 15.0 mph24.1 kmh 29.71 in1006.1 mb 0.01 in0.3 mm 0.00 in0.0 mm 0.11 in2.8 mm
03:00 PM 70.4°F21.3°C 69.5°F20.8°C 97% 12.0 mph ESE19.3 kmh ESE 14.0 mph22.5 kmh 29.71 in1006.1 mb 0.00 in0.0 mm 0.00 in0.0 mm 0.11 in2.8 mm
03:15 PM 70.6°F21.4°C 69.7°F20.9°C 97% 13.0 mph SE20.9 kmh SE 15.0 mph24.1 kmh 29.70 in1005.8 mb 0.00 in0.0 mm 0.00 in0.0 mm 0.11 in2.8 mm
03:30 PM 70.9°F21.6°C 70.0°F21.1°C 97% 9.0 mph SE14.5 kmh SE 14.0 mph22.5 kmh 29.69 in1005.4 mb 0.00 in0.0 mm 0.00 in0.0 mm 0.11 in2.8 mm
03:45 PM 71.1°F21.7°C 70.2°F21.2°C 97% 9.0 mph SE14.5 kmh SE 13.0 mph20.9 kmh 29.69 in1005.4 mb 0.00 in0.0 mm 0.00 in0.0 mm 0.11 in2.8 mm
04:00 PM 71.3°F21.8°C 70.4°F21.3°C 97% 9.0 mph SE14.5 kmh SE 13.0 mph20.9 kmh 29.68 in1005.1 mb 0.00 in0.0 mm 0.00 in0.0 mm 0.11 in2.8 mm
04:15 PM 71.6°F22.0°C 70.7°F21.5°C 97% 10.0 mph SE16.1 kmh SE 12.0 mph19.3 kmh 29.68 in1005.1 mb 0.00 in0.0 mm 0.00 in0.0 mm 0.11 in2.8 mm
04:30 PM 71.5°F21.9°C 70.6°F21.4°C 97% 9.0 mph SE14.5 kmh SE 10.0 mph16.1 kmh 29.68 in1005.1 mb 0.00 in0.0 mm 0.00 in0.0 mm 0.11 in2.8 mm
04:45 PM 71.6°F22.0°C 70.7°F21.5°C 97% 8.0 mph SSE12.9 kmh SSE 9.0 mph14.5 kmh 29.68 in1005.1 mb 0.00 in0.0 mm 0.00 in0.0 mm 0.11 in2.8 mm
05:00 PM 71.8°F22.1°C 70.9°F21.6°C 97% 7.0 mph SE11.3 kmh SE 8.0 mph12.9 kmh 29.67 in1004.7 mb 0.00 in0.0 mm 0.00 in0.0 mm 0.11 in2.8 mm
05:15 PM 71.7°F22.1°C 70.8°F21.6°C 97% 5.0 mph SE8.0 kmh SE 6.0 mph9.7 kmh 29.66 in1004.4 mb 0.00 in0.0 mm 0.00 in0.0 mm 0.11 in2.8 mm
05:30 PM 71.9°F22.2°C 71.0°F21.7°C 97% 2.0 mph SE3.2 kmh SE 5.0 mph8.0 kmh 29.66 in1004.4 mb 0.00 in0.0 mm 0.00 in0.0 mm 0.11 in2.8 mm
05:45 PM 72.0°F22.2°C 71.1°F21.7°C 97% 4.0 mph SSE6.4 kmh SSE 5.0 mph8.0 kmh 29.65 in1004.1 mb 0.00 in0.0 mm 0.00 in0.0 mm 0.11 in2.8 mm
06:00 PM 72.1°F22.3°C 71.2°F21.8°C 97% 5.0 mph S8.0 kmh S 7.0 mph11.3 kmh 29.64 in1003.7 mb 0.00 in0.0 mm 0.00 in0.0 mm 0.11 in2.8 mm
06:15 PM 72.2°F22.3°C 71.3°F21.8°C 97% 4.0 mph S6.4 kmh S 6.0 mph9.7 kmh 29.64 in1003.7 mb 0.00 in0.0 mm 0.00 in0.0 mm 0.11 in2.8 mm
06:30 PM 72.4°F22.4°C 71.2°F21.8°C 96% 1.0 mph S1.6 kmh S 4.0 mph6.4 kmh 29.63 in1003.4 mb 0.00 in0.0 mm 0.00 in0.0 mm 0.11 in2.8 mm
06:45 PM 72.7°F22.6°C 71.5°F21.9°C 96% Calm Calm 1.0 mph1.6 kmh 29.63 in1003.4 mb 0.00 in0.0 mm 0.00 in0.0 mm 0.11 in2.8 mm
07:00 PM 72.5°F22.5°C 71.0°F21.7°C 95% Calm Calm 1.0 mph1.6 kmh 29.63 in1003.4 mb 0.00 in0.0 mm 0.00 in0.0 mm 0.11 in2.8 mm
07:15 PM 72.3°F22.4°C 70.8°F21.6°C 95% Calm Calm -- 29.62 in1003.0 mb 0.00 in0.0 mm 0.00 in0.0 mm 0.11 in2.8 mm
07:30 PM 72.2°F22.3°C 71.0°F21.7°C 96% Calm Calm -- 29.62 in1003.0 mb 0.00 in0.0 mm 0.00 in0.0 mm 0.11 in2.8 mm
07:45 PM 72.2°F22.3°C 71.0°F21.7°C 96% 1.0 mph SSE1.6 kmh SSE 3.0 mph4.8 kmh 29.62 in1003.0 mb 0.00 in0.0 mm 0.00 in0.0 mm 0.11 in2.8 mm
08:00 PM 72.1°F22.3°C 70.9°F21.6°C 96% 2.0 mph SSE3.2 kmh SSE 3.0 mph4.8 kmh 29.61 in1002.7 mb 0.00 in0.0 mm 0.00 in0.0 mm 0.11 in2.8 mm
08:15 PM 72.2°F22.3°C 71.3°F21.8°C 97% 5.0 mph WSW8.0 kmh WSW 6.0 mph9.7 kmh 29.61 in1002.7 mb 0.01 in0.3 mm 0.04 in1.0 mm 0.12 in3.0 mm
08:30 PM 71.8°F22.1°C 70.9°F21.6°C 97% 10.0 mph S16.1 kmh S 13.0 mph20.9 kmh 29.62 in1003.0 mb 0.12 in3.0 mm 0.44 in11.2 mm 0.23 in5.8 mm
08:45 PM 72.1°F22.3°C 70.6°F21.4°C 95% 6.0 mph WSW9.7 kmh WSW 10.0 mph16.1 kmh 29.60 in1002.4 mb 0.13 in3.3 mm 0.04 in1.0 mm 0.24 in6.1 mm
09:00 PM 71.9°F22.2°C 70.1°F21.2°C 94% 4.0 mph SW6.4 kmh SW 6.0 mph9.7 kmh 29.61 in1002.7 mb 0.13 in3.3 mm 0.00 in0.0 mm 0.24 in6.1 mm
09:15 PM 71.7°F22.1°C 70.2°F21.2°C 95% 3.0 mph SW4.8 kmh SW 5.0 mph8.0 kmh 29.61 in1002.7 mb 0.13 in3.3 mm 0.00 in0.0 mm 0.24 in6.1 mm
09:30 PM 71.6°F22.0°C 70.4°F21.3°C 96% 2.0 mph SW3.2 kmh SW 4.0 mph6.4 kmh 29.61 in1002.7 mb 0.02 in0.5 mm 0.00 in0.0 mm 0.24 in6.1 mm
09:45 PM 71.7°F22.1°C 70.5°F21.4°C 96% 3.0 mph SSW4.8 kmh SSW 3.0 mph4.8 kmh 29.62 in1003.0 mb 0.02 in0.5 mm 0.00 in0.0 mm 0.24 in6.1 mm
10:00 PM 72.0°F22.2°C 70.5°F21.4°C 95% 6.0 mph WSW9.7 kmh WSW 6.0 mph9.7 kmh 29.62 in1003.0 mb 0.00 in0.0 mm 0.00 in0.0 mm 0.24 in6.1 mm
10:15 PM 72.7°F22.6°C 70.6°F21.4°C 93% 6.0 mph WSW9.7 kmh WSW 11.0 mph17.7 kmh 29.62 in1003.0 mb 0.00 in0.0 mm 0.00 in0.0 mm 0.24 in6.1 mm
10:30 PM 72.1°F22.3°C 70.3°F21.3°C 94% 4.0 mph WSW6.4 kmh WSW 7.0 mph11.3 kmh 29.63 in1003.4 mb 0.00 in0.0 mm 0.00 in0.0 mm 0.24 in6.1 mm
10:45 PM 71.8°F22.1°C 70.0°F21.1°C 94% 3.0 mph SW4.8 kmh SW 4.0 mph6.4 kmh 29.62 in1003.0 mb 0.00 in0.0 mm 0.00 in0.0 mm 0.24 in6.1 mm
11:00 PM 71.5°F21.9°C 70.0°F21.1°C 95% 3.0 mph SW4.8 kmh SW 4.0 mph6.4 kmh 29.62 in1003.0 mb 0.00 in0.0 mm 0.00 in0.0 mm 0.24 in6.1 mm
11:15 PM 71.5°F21.9°C 70.0°F21.1°C 95% 2.0 mph SSW3.2 kmh SSW 4.0 mph6.4 kmh 29.62 in1003.0 mb 0.00 in0.0 mm 0.00 in0.0 mm 0.24 in6.1 mm
11:30 PM 71.4°F21.9°C 69.9°F21.1°C 95% 6.0 mph SW9.7 kmh SW 8.0 mph12.9 kmh 29.62 in1003.0 mb 0.00 in0.0 mm 0.00 in0.0 mm 0.24 in6.1 mm
11:45 PM 71.4°F21.9°C 69.6°F20.9°C 94% 6.0 mph SW9.7 kmh SW 9.0 mph14.5 kmh 29.61 in1002.7 mb 0.00 in0.0 mm 0.00 in0.0 mm 0.24 in6.1 mm